sensor_id;sensor_type;location;lat;lon;timestamp;pressure;altitude;pressure_sealevel;temperature;humidity
22662;BME280;11497;52.222;21.246;2022-10-31T00:01:33;100765.03;;;7.32;100.00
22662;BME280;11497;52.222;21.246;2022-10-31T00:04:01;100758.16;;;7.28;100.00
22662;BME280;11497;52.222;21.246;2022-10-31T00:06:30;100763.34;;;7.29;100.00
22662;BME280;11497;52.222;21.246;2022-10-31T00:09:01;100760.81;;;7.23;100.00
22662;BME280;11497;52.222;21.246;2022-10-31T00:11:30;100760.88;;;7.19;100.00
22662;BME280;11497;52.222;21.246;2022-10-31T00:13:58;100764.31;;;7.21;100.00
22662;BME280;11497;52.222;21.246;2022-10-31T00:16:27;100768.69;;;7.17;100.00
22662;BME280;11497;52.222;21.246;2022-10-31T00:19:01;100771.25;;;7.22;100.00
22662;BME280;11497;52.222;21.246;2022-10-31T00:21:30;100762.66;;;7.14;100.00
22662;BME280;11497;52.222;21.246;2022-10-31T00:23:59;100769.69;;;7.07;100.00
22662;BME280;11497;52.222;21.246;2022-10-31T00:26:29;100762.78;;;7.05;100.00
22662;BME280;11497;52.222;21.246;2022-10-31T00:28:59;100762.72;;;7.11;100.00
22662;BME280;11497;52.222;21.246;2022-10-31T00:31:27;100769.66;;;7.09;100.00
22662;BME280;11497;52.222;21.246;2022-10-31T00:33:57;100765.34;;;7.08;100.00
22662;BME280;11497;52.222;21.246;2022-10-31T00:36:26;100770.56;;;7.08;100.00
22662;BME280;11497;52.222;21.246;2022-10-31T00:38:54;100771.50;;;7.00;100.00
22662;BME280;11497;52.222;21.246;2022-10-31T00:41:23;100775.06;;;6.93;100.00
22662;BME280;11497;52.222;21.246;2022-10-31T00:43:51;100771.69;;;6.88;100.00
22662;BME280;11497;52.222;21.246;2022-10-31T00:46:19;100773.88;;;7.20;100.00
22662;BME280;11497;52.222;21.246;2022-10-31T00:48:47;100786.97;;;7.13;100.00
22662;BME280;11497;52.222;21.246;2022-10-31T00:51:15;100776.78;;;6.94;100.00
22662;BME280;11497;52.222;21.246;2022-10-31T00:53:44;100775.13;;;6.90;100.00
22662;BME280;11497;52.222;21.246;2022-10-31T00:56:11;100777.75;;;6.89;100.00
22662;BME280;11497;52.222;21.246;2022-10-31T00:58:40;100776.84;;;6.91;100.00
22662;BME280;11497;52.222;21.246;2022-10-31T01:01:11;100781.31;;;6.80;100.00
22662;BME280;11497;52.222;21.246;2022-10-31T01:03:39;100778.78;;;6.74;100.00
22662;BME280;11497;52.222;21.246;2022-10-31T01:06:13;100787.47;;;6.73;100.00
22662;BME280;11497;52.222;21.246;2022-10-31T01:08:41;100782.28;;;6.70;100.00
22662;BME280;11497;52.222;21.246;2022-10-31T01:11:17;100791.00;;;6.66;100.00
22662;BME280;11497;52.222;21.246;2022-10-31T01:13:46;100787.56;;;6.62;100.00
22662;BME280;11497;52.222;21.246;2022-10-31T01:16:17;100787.56;;;6.64;100.00
22662;BME280;11497;52.222;21.246;2022-10-31T01:18:46;100786.75;;;6.57;100.00
22662;BME280;11497;52.222;21.246;2022-10-31T01:21:21;100793.69;;;6.57;100.00
22662;BME280;11497;52.222;21.246;2022-10-31T01:23:52;100790.22;;;6.58;100.00
22662;BME280;11497;52.222;21.246;2022-10-31T01:26:23;100790.22;;;6.58;100.00
22662;BME280;11497;52.222;21.246;2022-10-31T01:29:11;100790.28;;;6.53;100.00
22662;BME280;11497;52.222;21.246;2022-10-31T01:31:39;100786.81;;;6.51;100.00
22662;BME280;11497;52.222;21.246;2022-10-31T01:34:08;100789.41;;;6.51;100.00
22662;BME280;11497;52.222;21.246;2022-10-31T01:36:40;100786.03;;;6.48;100.00
22662;BME280;11497;52.222;21.246;2022-10-31T01:39:12;100784.31;;;6.44;100.00
22662;BME280;11497;52.222;21.246;2022-10-31T01:41:43;100796.44;;;6.46;100.00
22662;BME280;11497;52.222;21.246;2022-10-31T01:52:04;100805.13;;;6.44;100.00
22662;BME280;11497;52.222;21.246;2022-10-31T01:54:41;100799.97;;;6.38;100.00
22662;BME280;11497;52.222;21.246;2022-10-31T01:57:12;100795.69;;;6.33;100.00
22662;BME280;11497;52.222;21.246;2022-10-31T01:59:46;100800.00;;;6.34;100.00
22662;BME280;11497;52.222;21.246;2022-10-31T02:02:16;100795.78;;;6.23;100.00
22662;BME280;11497;52.222;21.246;2022-10-31T02:04:46;100794.88;;;6.28;100.00
22662;BME280;11497;52.222;21.246;2022-10-31T02:07:27;100797.50;;;6.25;100.00
22662;BME280;11497;52.222;21.246;2022-10-31T02:10:00;100794.88;;;6.28;100.00
22662;BME280;11497;52.222;21.246;2022-10-31T02:12:30;100789.66;;;6.28;100.00
22662;BME280;11497;52.222;21.246;2022-10-31T02:15:00;100792.28;;;6.25;100.00
22662;BME280;11497;52.222;21.246;2022-10-31T02:17:29;100794.88;;;6.28;100.00
22662;BME280;11497;52.222;21.246;2022-10-31T02:20:16;100793.97;;;6.31;100.00
22662;BME280;11497;52.222;21.246;2022-10-31T02:23:19;100801.94;;;6.13;100.00
22662;BME280;11497;52.222;21.246;2022-10-31T02:26:18;100803.69;;;6.08;100.00
22662;BME280;11497;52.222;21.246;2022-10-31T02:32:27;100797.69;;;6.06;100.00
22662;BME280;11497;52.222;21.246;2022-10-31T02:44:30;100798.56;;;6.03;100.00
22662;BME280;11497;52.222;21.246;2022-10-31T02:47:15;100798.63;;;5.94;100.00
22662;BME280;11497;52.222;21.246;2022-10-31T02:50:07;100799.50;;;5.96;100.00
22662;BME280;11497;52.222;21.246;2022-10-31T02:52:38;100802.09;;;5.96;100.00
22662;BME280;11497;52.222;21.246;2022-10-31T02:55:44;100802.09;;;5.96;100.00
22662;BME280;11497;52.222;21.246;2022-10-31T03:01:10;100796.03;;;5.94;100.00
22662;BME280;11497;52.222;21.246;2022-10-31T03:12:28;100807.38;;;5.78;100.00
22662;BME280;11497;52.222;21.246;2022-10-31T03:15:05;100809.13;;;5.76;100.00
22662;BME280;11497;52.222;21.246;2022-10-31T03:17:56;100809.06;;;5.85;100.00
22662;BME280;11497;52.222;21.246;2022-10-31T03:20:45;100817.72;;;5.87;100.00
22662;BME280;11497;52.222;21.246;2022-10-31T03:23:16;100811.66;;;5.85;100.00
22662;BME280;11497;52.222;21.246;2022-10-31T03:25:52;100815.16;;;5.79;100.00
22662;BME280;11497;52.222;21.246;2022-10-31T03:28:29;100826.44;;;5.74;100.00
22662;BME280;11497;52.222;21.246;2022-10-31T03:30:59;100817.81;;;5.68;100.00
22662;BME280;11497;52.222;21.246;2022-10-31T03:33:37;100820.44;;;5.65;100.00
22662;BME280;11497;52.222;21.246;2022-10-31T03:36:09;100823.03;;;5.65;100.00
22662;BME280;11497;52.222;21.246;2022-10-31T03:38:39;100827.34;;;5.68;100.00
22662;BME280;11497;52.222;21.246;2022-10-31T03:41:14;100828.28;;;5.62;100.00
22662;BME280;11497;52.222;21.246;2022-10-31T03:44:04;100836.94;;;5.58;100.00
22662;BME280;11497;52.222;21.246;2022-10-31T03:46:33;100835.19;;;5.62;100.00
22662;BME280;11497;52.222;21.246;2022-10-31T03:49:02;100838.69;;;5.59;100.00
22662;BME280;11497;52.222;21.246;2022-10-31T04:00:05;100839.59;;;5.48;100.00
22662;BME280;11497;52.222;21.246;2022-10-31T04:03:15;100841.34;;;5.47;100.00
22662;BME280;11497;52.222;21.246;2022-10-31T04:05:47;100837.88;;;5.47;100.00
22662;BME280;11497;52.222;21.246;2022-10-31T04:08:20;100841.34;;;5.47;100.00
22662;BME280;11497;52.222;21.246;2022-10-31T04:10:50;100845.66;;;5.45;100.00
22662;BME280;11497;52.222;21.246;2022-10-31T04:13:29;100843.97;;;5.38;100.00
22662;BME280;11497;52.222;21.246;2022-10-31T04:16:05;100844.81;;;5.40;100.00
22662;BME280;11497;52.222;21.246;2022-10-31T04:18:40;100849.16;;;5.41;100.00
22662;BME280;11497;52.222;21.246;2022-10-31T04:21:09;100846.53;;;5.47;100.00
22662;BME280;11497;52.222;21.246;2022-10-31T04:23:37;100846.53;;;5.47;100.00
22662;BME280;11497;52.222;21.246;2022-10-31T04:26:13;100845.66;;;5.48;100.00
22662;BME280;11497;52.222;21.246;2022-10-31T04:28:44;100841.38;;;5.41;100.00
22662;BME280;11497;52.222;21.246;2022-10-31T04:31:13;100849.16;;;5.41;100.00
22662;BME280;11497;52.222;21.246;2022-10-31T04:33:43;100845.69;;;5.41;100.00
22662;BME280;11497;52.222;21.246;2022-10-31T04:36:12;100860.38;;;5.46;100.00
22662;BME280;11497;52.222;21.246;2022-10-31T04:38:41;100850.88;;;5.39;100.00
22662;BME280;11497;52.222;21.246;2022-10-31T04:41:25;100853.50;;;5.33;100.00
22662;BME280;11497;52.222;21.246;2022-10-31T04:43:58;100852.66;;;5.31;100.00
22662;BME280;11497;52.222;21.246;2022-10-31T04:46:27;100852.63;;;5.34;100.00
22662;BME280;11497;52.222;21.246;2022-10-31T04:48:57;100861.13;;;5.66;100.00
22662;BME280;11497;52.222;21.246;2022-10-31T04:51:25;100866.22;;;5.83;100.00
22662;BME280;11497;52.222;21.246;2022-10-31T04:53:53;100862.78;;;5.80;100.00
22662;BME280;11497;52.222;21.246;2022-10-31T04:56:39;100862.84;;;5.64;100.00
22662;BME280;11497;52.222;21.246;2022-10-31T04:59:14;100867.28;;;5.53;100.00
22662;BME280;11497;52.222;21.246;2022-10-31T05:01:50;100871.59;;;5.51;100.00
22662;BME280;11497;52.222;21.246;2022-10-31T05:04:24;100871.63;;;5.45;100.00
22662;BME280;11497;52.222;21.246;2022-10-31T05:06:52;100876.72;;;5.63;100.00
22662;BME280;11497;52.222;21.246;2022-10-31T05:09:20;100876.59;;;5.85;100.00
22662;BME280;11497;52.222;21.246;2022-10-31T05:11:48;100877.50;;;5.79;100.00
22662;BME280;11497;52.222;21.246;2022-10-31T05:14:38;100876.69;;;5.69;100.00
22662;BME280;11497;52.222;21.246;2022-10-31T05:17:28;100875.78;;;5.75;100.00
22662;BME280;11497;52.222;21.246;2022-10-31T05:20:28;100873.13;;;5.89;100.00
22662;BME280;11497;52.222;21.246;2022-10-31T05:23:15;100871.47;;;5.69;100.00
22662;BME280;11497;52.222;21.246;2022-10-31T05:25:43;100872.44;;;5.58;100.00
22662;BME280;11497;52.222;21.246;2022-10-31T05:28:12;100871.59;;;5.51;100.00
22662;BME280;11497;52.222;21.246;2022-10-31T05:30:40;100878.50;;;5.55;100.00
22662;BME280;11497;52.222;21.246;2022-10-31T05:33:12;100873.31;;;5.55;100.00
22662;BME280;11497;52.222;21.246;2022-10-31T05:35:58;100876.66;;;5.76;100.00
22662;BME280;11497;52.222;21.246;2022-10-31T05:38:44;100880.09;;;5.79;100.00
22662;BME280;11497;52.222;21.246;2022-10-31T05:41:24;100888.78;;;5.71;100.00
22662;BME280;11497;52.222;21.246;2022-10-31T05:44:00;100883.69;;;5.58;100.00
22662;BME280;11497;52.222;21.246;2022-10-31T05:46:29;100891.50;;;5.55;100.00
22662;BME280;11497;52.222;21.246;2022-10-31T05:49:16;100888.91;;;5.54;100.00
22662;BME280;11497;52.222;21.246;2022-10-31T05:52:03;100889.72;;;5.62;100.00
22662;BME280;11497;52.222;21.246;2022-10-31T05:54:49;100893.22;;;5.55;100.00
22662;BME280;11497;52.222;21.246;2022-10-31T05:57:17;100896.66;;;5.63;100.00
22662;BME280;11497;52.222;21.246;2022-10-31T05:59:46;100898.38;;;5.62;100.00
22662;BME280;11497;52.222;21.246;2022-10-31T06:02:22;100895.66;;;5.84;100.00
22662;BME280;11497;52.222;21.246;2022-10-31T06:05:22;100894.59;;;6.15;100.00
22662;BME280;11497;52.222;21.246;2022-10-31T06:07:50;100888.63;;;6.06;100.00
22662;BME280;11497;52.222;21.246;2022-10-31T06:10:18;100886.94;;;5.98;100.00
22662;BME280;11497;52.222;21.246;2022-10-31T06:12:52;100894.72;;;6.00;100.00
22662;BME280;11497;52.222;21.246;2022-10-31T06:15:24;100902.41;;;6.15;100.00
22662;BME280;11497;52.222;21.246;2022-10-31T06:18:04;100897.94;;;6.34;100.00
22662;BME280;11497;52.222;21.246;2022-10-31T06:20:45;100896.91;;;6.52;100.00
22662;BME280;11497;52.222;21.246;2022-10-31T06:23:12;100888.28;;;6.50;100.00
22662;BME280;11497;52.222;21.246;2022-10-31T06:25:43;100892.53;;;6.55;100.00
22662;BME280;11497;52.222;21.246;2022-10-31T06:28:12;100889.69;;;6.84;100.00
22662;BME280;11497;52.222;21.246;2022-10-31T06:30:49;100898.03;;;7.14;100.00
22662;BME280;11497;52.222;21.246;2022-10-31T06:33:18;100903.00;;;7.35;100.00
22662;BME280;11497;52.222;21.246;2022-10-31T06:35:57;100904.66;;;7.39;100.00
22662;BME280;11497;52.222;21.246;2022-10-31T06:38:27;100902.84;;;7.44;100.00
22662;BME280;11497;52.222;21.246;2022-10-31T06:40:56;100905.25;;;7.61;100.00
22662;BME280;11497;52.222;21.246;2022-10-31T06:43:28;100906.19;;;7.57;100.00
22662;BME280;11497;52.222;21.246;2022-10-31T06:46:16;100909.25;;;7.86;100.00
22662;BME280;11497;52.222;21.246;2022-10-31T06:48:58;100913.38;;;8.02;100.00
22662;BME280;11497;52.222;21.246;2022-10-31T06:51:42;100914.66;;;8.34;99.28
22662;BME280;11497;52.222;21.246;2022-10-31T06:54:10;100911.78;;;8.51;98.91
22662;BME280;11497;52.222;21.246;2022-10-31T06:56:38;100912.53;;;8.57;99.08
22662;BME280;11497;52.222;21.246;2022-10-31T06:59:06;100918.63;;;8.58;98.54
22662;BME280;11497;52.222;21.246;2022-10-31T07:01:53;100920.06;;;8.74;97.97
22662;BME280;11497;52.222;21.246;2022-10-31T07:04:21;100915.59;;;8.81;97.36
22662;BME280;11497;52.222;21.246;2022-10-31T07:06:53;100918.06;;;8.88;96.59
22662;BME280;11497;52.222;21.246;2022-10-31T07:09:21;100911.03;;;8.93;96.74
22662;BME280;11497;52.222;21.246;2022-10-31T07:11:52;100911.41;;;9.18;96.55
22662;BME280;11497;52.222;21.246;2022-10-31T07:14:20;100911.22;;;9.27;95.82
22662;BME280;11497;52.222;21.246;2022-10-31T07:16:49;100913.53;;;9.44;95.26
22662;BME280;11497;52.222;21.246;2022-10-31T07:19:23;100910.50;;;9.62;95.09
22662;BME280;11497;52.222;21.246;2022-10-31T07:21:51;100910.34;;;9.70;94.79
22662;BME280;11497;52.222;21.246;2022-10-31T07:24:19;100921.34;;;9.86;94.99
22662;BME280;11497;52.222;21.246;2022-10-31T07:27:07;100928.91;;;9.98;94.83
22662;BME280;11497;52.222;21.246;2022-10-31T07:29:35;100923.28;;;10.15;94.48
22662;BME280;11497;52.222;21.246;2022-10-31T07:32:04;100923.09;;;10.25;94.51
22662;BME280;11497;52.222;21.246;2022-10-31T07:34:35;100923.53;;;10.43;94.22
22662;BME280;11497;52.222;21.246;2022-10-31T07:37:18;100927.50;;;10.59;94.05
22662;BME280;11497;52.222;21.246;2022-10-31T07:39:46;100933.88;;;10.83;94.10
22662;BME280;11497;52.222;21.246;2022-10-31T07:42:14;100933.16;;;11.10;93.77
22662;BME280;11497;52.222;21.246;2022-10-31T07:44:45;100937.28;;;11.50;92.63
22662;BME280;11497;52.222;21.246;2022-10-31T07:47:13;100920.25;;;11.64;91.66
22662;BME280;11497;52.222;21.246;2022-10-31T07:50:08;100923.75;;;11.94;90.71
22662;BME280;11497;52.222;21.246;2022-10-31T07:53:13;100921.94;;;12.24;89.36
22662;BME280;11497;52.222;21.246;2022-10-31T07:55:54;100914.63;;;12.34;88.47
22662;BME280;11497;52.222;21.246;2022-10-31T07:58:28;100919.91;;;12.59;88.09
22662;BME280;11497;52.222;21.246;2022-10-31T08:00:58;100924.22;;;13.38;85.68
22662;BME280;11497;52.222;21.246;2022-10-31T08:03:35;100922.88;;;14.40;83.16
22662;BME280;11497;52.222;21.246;2022-10-31T08:06:21;100920.88;;;14.88;78.25
22662;BME280;11497;52.222;21.246;2022-10-31T08:08:55;100929.16;;;15.40;75.19
22662;BME280;11497;52.222;21.246;2022-10-31T08:11:23;100925.78;;;15.76;73.07
22662;BME280;11497;52.222;21.246;2022-10-31T08:13:52;100926.00;;;16.45;70.89
22662;BME280;11497;52.222;21.246;2022-10-31T08:16:19;100927.34;;;17.22;67.42
22662;BME280;11497;52.222;21.246;2022-10-31T08:18:53;100934.25;;;18.07;64.42
22662;BME280;11497;52.222;21.246;2022-10-31T08:21:23;100936.13;;;19.40;60.94
22662;BME280;11497;52.222;21.246;2022-10-31T08:23:51;100938.47;;;20.43;57.46
22662;BME280;11497;52.222;21.246;2022-10-31T08:26:22;100942.91;;;21.09;54.03
22662;BME280;11497;52.222;21.246;2022-10-31T08:28:53;100944.47;;;22.00;51.68
22662;BME280;11497;52.222;21.246;2022-10-31T08:31:25;100952.16;;;22.76;49.20
22662;BME280;11497;52.222;21.246;2022-10-31T08:34:19;100954.25;;;23.19;47.06
22662;BME280;11497;52.222;21.246;2022-10-31T08:37:10;100963.81;;;23.68;45.33
22662;BME280;11497;52.222;21.246;2022-10-31T08:39:47;100957.50;;;23.80;44.15
22662;BME280;11497;52.222;21.246;2022-10-31T08:42:15;100956.34;;;24.16;43.65
22662;BME280;11497;52.222;21.246;2022-10-31T08:44:43;100959.38;;;24.23;43.12
22662;BME280;11497;52.222;21.246;2022-10-31T08:47:11;100973.31;;;24.48;41.76
22662;BME280;11497;52.222;21.246;2022-10-31T08:49:39;100973.22;;;24.71;41.19
22662;BME280;11497;52.222;21.246;2022-10-31T08:52:07;100969.44;;;25.26;40.73
22662;BME280;11497;52.222;21.246;2022-10-31T08:54:41;100969.72;;;25.23;39.73
22662;BME280;11497;52.222;21.246;2022-10-31T08:57:29;100973.09;;;25.67;39.47
22662;BME280;11497;52.222;21.246;2022-10-31T08:59:59;100967.97;;;25.64;38.79
22662;BME280;11497;52.222;21.246;2022-10-31T09:02:29;100970.16;;;25.49;38.69
22662;BME280;11497;52.222;21.246;2022-10-31T09:04:59;100970.81;;;25.41;38.52
22662;BME280;11497;52.222;21.246;2022-10-31T09:07:28;100965.47;;;25.41;38.47
22662;BME280;11497;52.222;21.246;2022-10-31T09:09:56;100966.13;;;25.85;38.28
22662;BME280;11497;52.222;21.246;2022-10-31T09:12:24;100976.75;;;26.36;37.29
22662;BME280;11497;52.222;21.246;2022-10-31T09:15:28;100973.50;;;26.42;37.25
22662;BME280;11497;52.222;21.246;2022-10-31T09:18:13;100965.34;;;26.13;37.43
22662;BME280;11497;52.222;21.246;2022-10-31T09:20:50;100972.72;;;26.21;36.96
22662;BME280;11497;52.222;21.246;2022-10-31T09:23:23;100979.13;;;26.49;36.52
22662;BME280;11497;52.222;21.246;2022-10-31T09:25:52;100973.22;;;26.05;36.40
22662;BME280;11497;52.222;21.246;2022-10-31T09:28:33;100971.28;;;26.17;36.75
22662;BME280;11497;52.222;21.246;2022-10-31T09:31:07;100973.84;;;26.18;37.00
22662;BME280;11497;52.222;21.246;2022-10-31T09:33:58;100980.53;;;26.34;36.60
22662;BME280;11497;52.222;21.246;2022-10-31T09:36:39;100983.84;;;26.16;36.51
22662;BME280;11497;52.222;21.246;2022-10-31T09:39:11;100977.59;;;26.37;36.68
22662;BME280;11497;52.222;21.246;2022-10-31T09:48:03;100976.31;;;26.01;36.42
22662;BME280;11497;52.222;21.246;2022-10-31T09:56:23;100965.94;;;25.56;37.15
22662;BME280;11497;52.222;21.246;2022-10-31T09:59:01;100964.94;;;25.78;37.52
22662;BME280;11497;52.222;21.246;2022-10-31T10:01:55;100974.59;;;25.90;36.96
22662;BME280;11497;52.222;21.246;2022-10-31T10:14:14;100965.72;;;21.25;44.63
22662;BME280;11497;52.222;21.246;2022-10-31T10:20:01;100960.84;;;20.12;47.96
22662;BME280;11497;52.222;21.246;2022-10-31T10:22:54;100953.88;;;19.82;49.58
22662;BME280;11497;52.222;21.246;2022-10-31T10:25:38;100956.06;;;19.62;50.54
22662;BME280;11497;52.222;21.246;2022-10-31T10:28:29;100949.13;;;19.31;51.14
22662;BME280;11497;52.222;21.246;2022-10-31T10:31:08;100945.97;;;19.24;52.30
22662;BME280;11497;52.222;21.246;2022-10-31T10:36:21;100941.78;;;19.06;52.91
22662;BME280;11497;52.222;21.246;2022-10-31T10:38:58;100926.41;;;18.97;53.19
22662;BME280;11497;52.222;21.246;2022-10-31T10:41:32;100935.84;;;18.86;53.56
22662;BME280;11497;52.222;21.246;2022-10-31T10:44:01;100934.34;;;18.82;54.71
22662;BME280;11497;52.222;21.246;2022-10-31T10:46:43;100931.84;;;18.79;54.62
22662;BME280;11497;52.222;21.246;2022-10-31T10:49:48;100934.69;;;18.76;55.39
22662;BME280;11497;52.222;21.246;2022-10-31T10:56:02;100932.47;;;18.69;54.75
22662;BME280;11497;52.222;21.246;2022-10-31T10:58:10;100932.00;;;18.62;55.50
22662;BME280;11497;52.222;21.246;2022-10-31T11:00:45;100933.91;;;18.60;55.60
22662;BME280;11497;52.222;21.246;2022-10-31T11:03:15;100939.34;;;18.57;56.22
22662;BME280;11497;52.222;21.246;2022-10-31T11:05:50;100936.78;;;18.55;55.76
22662;BME280;11497;52.222;21.246;2022-10-31T11:08:25;100932.00;;;18.62;55.96
22662;BME280;11497;52.222;21.246;2022-10-31T11:11:31;100928.22;;;18.66;55.97
22662;BME280;11497;52.222;21.246;2022-10-31T11:14:03;100926.84;;;18.59;56.61
22662;BME280;11497;52.222;21.246;2022-10-31T11:16:42;100927.34;;;18.66;56.82
22662;BME280;11497;52.222;21.246;2022-10-31T11:19:40;100924.63;;;18.67;57.02
22662;BME280;11497;52.222;21.246;2022-10-31T11:22:14;100924.38;;;18.56;57.75
22662;BME280;11497;52.222;21.246;2022-10-31T11:24:42;100925.00;;;18.61;57.42
22662;BME280;11497;52.222;21.246;2022-10-31T11:27:20;100927.78;;;18.58;57.68
22662;BME280;11497;52.222;21.246;2022-10-31T11:29:49;100929.03;;;18.82;57.15
22662;BME280;11497;52.222;21.246;2022-10-31T11:32:21;100926.16;;;18.71;56.96
22662;BME280;11497;52.222;21.246;2022-10-31T11:34:53;100924.78;;;18.64;57.34
22662;BME280;11497;52.222;21.246;2022-10-31T11:37:34;100919.50;;;18.64;57.76
22662;BME280;11497;52.222;21.246;2022-10-31T11:40:05;100921.03;;;18.68;57.76
22662;BME280;11497;52.222;21.246;2022-10-31T11:42:40;100919.22;;;18.69;57.97
22662;BME280;11497;52.222;21.246;2022-10-31T11:45:39;100918.13;;;18.57;58.12
22662;BME280;11497;52.222;21.246;2022-10-31T11:48:22;100905.50;;;18.62;58.69
22662;BME280;11497;52.222;21.246;2022-10-31T11:50:56;100911.66;;;18.63;58.24
22662;BME280;11497;52.222;21.246;2022-10-31T11:53:32;100921.19;;;18.65;58.74
22662;BME280;11497;52.222;21.246;2022-10-31T11:58:33;100915.72;;;18.68;58.58
22662;BME280;11497;52.222;21.246;2022-10-31T12:01:00;100909.28;;;18.72;58.87
22662;BME280;11497;52.222;21.246;2022-10-31T12:08:46;100912.69;;;18.60;59.68
22662;BME280;11497;52.222;21.246;2022-10-31T12:14:15;100915.28;;;18.76;59.51
22662;BME280;11497;52.222;21.246;2022-10-31T12:19:55;100909.13;;;18.75;59.20
22662;BME280;11497;52.222;21.246;2022-10-31T12:25:37;100896.91;;;18.57;59.58
22662;BME280;11497;52.222;21.246;2022-10-31T12:37:36;100895.28;;;18.70;59.63
22662;BME280;11497;52.222;21.246;2022-10-31T12:40:17;100891.84;;;18.68;59.45
22662;BME280;11497;52.222;21.246;2022-10-31T12:45:36;100886.09;;;18.76;59.40
22662;BME280;11497;52.222;21.246;2022-10-31T12:59:01;100880.34;;;18.53;59.92
22662;BME280;11497;52.222;21.246;2022-10-31T13:04:40;100887.38;;;18.39;60.43
22662;BME280;11497;52.222;21.246;2022-10-31T13:07:20;100887.56;;;18.36;60.78
22662;BME280;11497;52.222;21.246;2022-10-31T13:12:40;100889.09;;;18.40;61.08
22662;BME280;11497;52.222;21.246;2022-10-31T13:15:24;100883.38;;;18.32;61.39
22662;BME280;11497;52.222;21.246;2022-10-31T13:17:56;100883.28;;;18.33;62.04
22662;BME280;11497;52.222;21.246;2022-10-31T13:20:33;100881.06;;;18.25;61.97
22662;BME280;11497;52.222;21.246;2022-10-31T13:26:12;100889.16;;;18.08;62.90
22662;BME280;11497;52.222;21.246;2022-10-31T13:29:05;100878.72;;;18.05;62.81
22662;BME280;11497;52.222;21.246;2022-10-31T13:31:43;100877.25;;;18.00;63.42
22662;BME280;11497;52.222;21.246;2022-10-31T13:34:30;100885.72;;;17.90;64.28
22662;BME280;11497;52.222;21.246;2022-10-31T13:45:26;100884.50;;;17.65;65.26
22662;BME280;11497;52.222;21.246;2022-10-31T13:50:34;100882.34;;;17.55;65.43
22662;BME280;11497;52.222;21.246;2022-10-31T13:53:21;100876.78;;;17.44;66.04
22662;BME280;11497;52.222;21.246;2022-10-31T13:58:37;100881.69;;;17.19;67.07
22662;BME280;11497;52.222;21.246;2022-10-31T14:01:18;100876.88;;;17.10;67.41
22662;BME280;11497;52.222;21.246;2022-10-31T14:09:32;100874.09;;;16.95;68.52
22662;BME280;11497;52.222;21.246;2022-10-31T14:12:11;100873.19;;;16.79;68.89
22662;BME280;11497;52.222;21.246;2022-10-31T14:14:51;100872.81;;;16.70;69.32
22662;BME280;11497;52.222;21.246;2022-10-31T14:17:24;100868.78;;;16.61;69.95
22662;BME280;11497;52.222;21.246;2022-10-31T14:20:22;100868.31;;;16.53;70.44
22662;BME280;11497;52.222;21.246;2022-10-31T14:22:48;100871.69;;;16.39;71.03
22662;BME280;11497;52.222;21.246;2022-10-31T14:25:34;100871.28;;;16.29;71.73
22662;BME280;11497;52.222;21.246;2022-10-31T14:28:19;100869.38;;;16.14;72.46
22662;BME280;11497;52.222;21.246;2022-10-31T14:30:56;100863.44;;;15.92;73.06
22662;BME280;11497;52.222;21.246;2022-10-31T14:33:26;100867.16;;;15.88;73.90
22662;BME280;11497;52.222;21.246;2022-10-31T14:36:08;100866.00;;;15.75;74.35
22662;BME280;11497;52.222;21.246;2022-10-31T14:47:35;100868.03;;;15.12;77.68
22662;BME280;11497;52.222;21.246;2022-10-31T14:52:56;100870.25;;;14.80;79.35
22662;BME280;11497;52.222;21.246;2022-10-31T14:55:25;100875.78;;;14.74;80.32
22662;BME280;11497;52.222;21.246;2022-10-31T14:58:02;100868.25;;;14.67;81.54
22662;BME280;11497;52.222;21.246;2022-10-31T15:00:33;100874.75;;;14.58;82.50
22662;BME280;11497;52.222;21.246;2022-10-31T15:03:16;100876.25;;;14.43;83.37
22662;BME280;11497;52.222;21.246;2022-10-31T15:05:54;100879.44;;;14.29;84.27
22662;BME280;11497;52.222;21.246;2022-10-31T15:08:55;100877.47;;;14.13;85.00
22662;BME280;11497;52.222;21.246;2022-10-31T15:11:25;100884.75;;;14.06;85.64
22662;BME280;11497;52.222;21.246;2022-10-31T15:13:55;100879.03;;;13.95;86.57
22662;BME280;11497;52.222;21.246;2022-10-31T15:16:27;100882.13;;;13.84;87.40
22662;BME280;11497;52.222;21.246;2022-10-31T15:21:26;100877.50;;;13.68;88.87
22662;BME280;11497;52.222;21.246;2022-10-31T15:23:59;100881.44;;;13.56;89.48
22662;BME280;11497;52.222;21.246;2022-10-31T15:26:35;100895.00;;;13.45;89.70
22662;BME280;11497;52.222;21.246;2022-10-31T15:29:13;100893.97;;;13.26;90.92
22662;BME280;11497;52.222;21.246;2022-10-31T15:32:09;100890.53;;;13.24;91.59
22662;BME280;11497;52.222;21.246;2022-10-31T15:34:44;100892.25;;;13.25;91.93
22662;BME280;11497;52.222;21.246;2022-10-31T15:37:14;100890.84;;;13.15;92.06
22662;BME280;11497;52.222;21.246;2022-10-31T15:39:43;100882.56;;;13.00;92.76
22662;BME280;11497;52.222;21.246;2022-10-31T15:45:00;100888.81;;;12.73;93.86
22662;BME280;11497;52.222;21.246;2022-10-31T15:47:30;100892.66;;;12.63;94.60
22662;BME280;11497;52.222;21.246;2022-10-31T15:50:00;100892.75;;;12.60;95.02
22662;BME280;11497;52.222;21.246;2022-10-31T15:55:24;100897.09;;;12.35;95.95
22662;BME280;11497;52.222;21.246;2022-10-31T15:57:58;100889.47;;;12.27;96.75
22662;BME280;11497;52.222;21.246;2022-10-31T16:00:32;100899.31;;;12.20;97.35
22662;BME280;11497;52.222;21.246;2022-10-31T16:05:38;100898.97;;;12.05;98.50